sensor_id;sensor_type;location;lat;lon;timestamp;pressure;altitude;pressure_sealevel;temperature;humidity
69971;BME280;57301;50.328;8.542;2023-03-31T00:02:12;97704.56;;;10.12;90.38
69971;BME280;57301;50.328;8.542;2023-03-31T00:04:40;97693.06;;;10.20;89.74
69971;BME280;57301;50.328;8.542;2023-03-31T00:07:15;97694.41;;;10.24;90.28
69971;BME280;57301;50.328;8.542;2023-03-31T00:09:42;97686.53;;;10.22;90.86
69971;BME280;57301;50.328;8.542;2023-03-31T00:12:14;97683.91;;;10.14;91.60
69971;BME280;57301;50.328;8.542;2023-03-31T00:14:42;97685.22;;;10.18;90.44
69971;BME280;57301;50.328;8.542;2023-03-31T00:17:09;97678.22;;;10.17;91.20
69971;BME280;57301;50.328;8.542;2023-03-31T00:19:36;97669.59;;;10.23;91.87
69971;BME280;57301;50.328;8.542;2023-03-31T00:22:02;97669.09;;;10.12;90.50
69971;BME280;57301;50.328;8.542;2023-03-31T00:24:31;97671.81;;;9.95;92.76
69971;BME280;57301;50.328;8.542;2023-03-31T00:27:01;97664.69;;;9.63;93.66
69971;BME280;57301;50.328;8.542;2023-03-31T00:29:28;97666.19;;;9.74;93.37
69971;BME280;57301;50.328;8.542;2023-03-31T00:31:55;97647.25;;;9.61;93.36
69971;BME280;57301;50.328;8.542;2023-03-31T00:34:21;97650.22;;;9.66;93.09
69971;BME280;57301;50.328;8.542;2023-03-31T00:36:48;97632.94;;;9.62;93.38
69971;BME280;57301;50.328;8.542;2023-03-31T00:39:17;97634.97;;;9.52;94.39
69971;BME280;57301;50.328;8.542;2023-03-31T00:41:44;97638.13;;;9.47;94.85
69971;BME280;57301;50.328;8.542;2023-03-31T00:44:15;97623.47;;;9.43;95.37
69971;BME280;57301;50.328;8.542;2023-03-31T00:49:44;97620.34;;;9.39;96.50
69971;BME280;57301;50.328;8.542;2023-03-31T00:54:43;97602.03;;;9.36;96.86
69971;BME280;57301;50.328;8.542;2023-03-31T00:57:11;97601.03;;;9.46;96.23
69971;BME280;57301;50.328;8.542;2023-03-31T00:59:42;97594.69;;;9.38;95.98
69971;BME280;57301;50.328;8.542;2023-03-31T01:02:12;97597.00;;;9.50;95.79
69971;BME280;57301;50.328;8.542;2023-03-31T01:04:48;97595.38;;;9.40;95.90
69971;BME280;57301;50.328;8.542;2023-03-31T01:07:43;97601.72;;;9.39;95.04
69971;BME280;57301;50.328;8.542;2023-03-31T01:10:12;97594.88;;;9.37;95.41
69971;BME280;57301;50.328;8.542;2023-03-31T01:12:40;97596.22;;;9.41;95.68
69971;BME280;57301;50.328;8.542;2023-03-31T01:15:08;97583.38;;;9.53;95.07
69971;BME280;57301;50.328;8.542;2023-03-31T01:17:35;97574.75;;;9.42;93.39
69971;BME280;57301;50.328;8.542;2023-03-31T01:20:31;97564.06;;;9.51;93.87
69971;BME280;57301;50.328;8.542;2023-03-31T01:31:58;97542.84;;;9.34;96.05
69971;BME280;57301;50.328;8.542;2023-03-31T01:34:41;97537.34;;;9.36;96.03
69971;BME280;57301;50.328;8.542;2023-03-31T01:40:35;97532.13;;;9.59;94.68
69971;BME280;57301;50.328;8.542;2023-03-31T01:46:19;97528.72;;;9.34;95.83
69971;BME280;57301;50.328;8.542;2023-03-31T01:49:29;97509.56;;;9.47;95.20
69971;BME280;57301;50.328;8.542;2023-03-31T01:55:00;97504.06;;;9.48;92.86
69971;BME280;57301;50.328;8.542;2023-03-31T01:57:38;97502.25;;;9.40;92.81
69971;BME280;57301;50.328;8.542;2023-03-31T02:00:11;97487.28;;;9.39;93.43
69971;BME280;57301;50.328;8.542;2023-03-31T02:03:01;97480.97;;;9.32;94.46
69971;BME280;57301;50.328;8.542;2023-03-31T02:05:35;97484.63;;;9.31;95.00
69971;BME280;57301;50.328;8.542;2023-03-31T02:08:13;97472.94;;;9.49;94.57
69971;BME280;57301;50.328;8.542;2023-03-31T02:10:42;97473.25;;;9.54;94.32
69971;BME280;57301;50.328;8.542;2023-03-31T02:13:11;97457.75;;;9.65;94.45
69971;BME280;57301;50.328;8.542;2023-03-31T02:15:41;97466.34;;;9.76;93.61
69971;BME280;57301;50.328;8.542;2023-03-31T02:18:11;97458.63;;;9.58;93.22
69971;BME280;57301;50.328;8.542;2023-03-31T02:20:39;97449.94;;;9.64;93.36
69971;BME280;57301;50.328;8.542;2023-03-31T02:23:13;97449.91;;;9.72;92.54
69971;BME280;57301;50.328;8.542;2023-03-31T02:25:46;97438.06;;;9.75;92.88
69971;BME280;57301;50.328;8.542;2023-03-31T02:28:19;97433.28;;;9.62;91.97
69971;BME280;57301;50.328;8.542;2023-03-31T02:34:15;97428.22;;;9.44;92.80
69971;BME280;57301;50.328;8.542;2023-03-31T02:36:42;97424.88;;;9.50;91.94
69971;BME280;57301;50.328;8.542;2023-03-31T02:39:14;97419.47;;;9.66;91.62
69971;BME280;57301;50.328;8.542;2023-03-31T02:41:42;97414.66;;;9.62;91.12
69971;BME280;57301;50.328;8.542;2023-03-31T02:44:10;97408.69;;;9.60;91.42
69971;BME280;57301;50.328;8.542;2023-03-31T02:46:37;97404.63;;;9.72;91.54
69971;BME280;57301;50.328;8.542;2023-03-31T02:49:06;97408.56;;;9.84;90.67
69971;BME280;57301;50.328;8.542;2023-03-31T02:51:45;97400.44;;;9.78;90.06
69971;BME280;57301;50.328;8.542;2023-03-31T03:13:38;97354.91;;;9.41;91.86
69971;BME280;57301;50.328;8.542;2023-03-31T03:16:16;97341.03;;;9.23;92.97
69971;BME280;57301;50.328;8.542;2023-03-31T03:18:58;97331.09;;;9.17;91.56
69971;BME280;57301;50.328;8.542;2023-03-31T03:21:26;97311.13;;;9.21;92.50
69971;BME280;57301;50.328;8.542;2023-03-31T03:23:53;97302.22;;;9.06;93.23
69971;BME280;57301;50.328;8.542;2023-03-31T03:26:20;97282.97;;;9.27;93.48
69971;BME280;57301;50.328;8.542;2023-03-31T03:28:49;97274.59;;;9.15;92.65
69971;BME280;57301;50.328;8.542;2023-03-31T03:31:16;97277.91;;;9.17;93.78
69971;BME280;57301;50.328;8.542;2023-03-31T03:33:43;97284.72;;;9.11;94.45
69971;BME280;57301;50.328;8.542;2023-03-31T03:36:09;97301.75;;;9.02;95.89
69971;BME280;57301;50.328;8.542;2023-03-31T03:38:36;97296.31;;;8.87;97.14
69971;BME280;57301;50.328;8.542;2023-03-31T03:41:03;97289.97;;;8.97;98.36
69971;BME280;57301;50.328;8.542;2023-03-31T03:43:29;97285.63;;;8.96;98.20
69971;BME280;57301;50.328;8.542;2023-03-31T03:45:56;97288.34;;;9.19;96.58
69971;BME280;57301;50.328;8.542;2023-03-31T03:48:22;97284.28;;;9.00;96.83
69971;BME280;57301;50.328;8.542;2023-03-31T03:50:49;97275.75;;;9.12;96.77
69971;BME280;57301;50.328;8.542;2023-03-31T03:53:16;97262.50;;;9.04;95.34
69971;BME280;57301;50.328;8.542;2023-03-31T03:55:42;97263.94;;;9.15;96.55
69971;BME280;57301;50.328;8.542;2023-03-31T03:58:10;97264.19;;;9.28;94.63
69971;BME280;57301;50.328;8.542;2023-03-31T04:00:36;97241.69;;;9.08;95.57
69971;BME280;57301;50.328;8.542;2023-03-31T04:03:03;97227.34;;;9.17;95.55
69971;BME280;57301;50.328;8.542;2023-03-31T04:05:29;97240.22;;;9.05;95.98
69971;BME280;57301;50.328;8.542;2023-03-31T04:07:56;97241.75;;;9.00;96.65
69971;BME280;57301;50.328;8.542;2023-03-31T04:10:22;97234.72;;;8.84;97.45
69971;BME280;57301;50.328;8.542;2023-03-31T04:12:49;97228.94;;;9.03;96.34
69971;BME280;57301;50.328;8.542;2023-03-31T04:15:15;97215.66;;;9.03;96.17
69971;BME280;57301;50.328;8.542;2023-03-31T04:17:42;97206.06;;;8.94;97.26
69971;BME280;57301;50.328;8.542;2023-03-31T04:20:16;97201.63;;;8.86;97.46
69971;BME280;57301;50.328;8.542;2023-03-31T04:22:43;97215.13;;;8.77;98.99
69971;BME280;57301;50.328;8.542;2023-03-31T04:25:13;97211.03;;;8.66;99.39
69971;BME280;57301;50.328;8.542;2023-03-31T04:27:43;97204.28;;;8.86;97.87
69971;BME280;57301;50.328;8.542;2023-03-31T04:30:16;97210.78;;;8.84;96.78
69971;BME280;57301;50.328;8.542;2023-03-31T04:32:53;97196.94;;;8.88;96.82
69971;BME280;57301;50.328;8.542;2023-03-31T04:35:24;97196.34;;;8.78;96.69
69971;BME280;57301;50.328;8.542;2023-03-31T04:37:52;97188.38;;;8.78;97.17
69971;BME280;57301;50.328;8.542;2023-03-31T04:40:25;97184.34;;;8.82;95.17
69971;BME280;57301;50.328;8.542;2023-03-31T04:42:52;97196.69;;;9.06;93.42
69971;BME280;57301;50.328;8.542;2023-03-31T04:45:18;97189.72;;;9.05;93.73
69971;BME280;57301;50.328;8.542;2023-03-31T04:47:45;97183.88;;;9.10;93.91
69971;BME280;57301;50.328;8.542;2023-03-31T04:50:12;97177.06;;;9.07;93.30
69971;BME280;57301;50.328;8.542;2023-03-31T04:52:42;97166.78;;;9.04;93.27
69971;BME280;57301;50.328;8.542;2023-03-31T04:55:09;97152.53;;;9.20;93.05
69971;BME280;57301;50.328;8.542;2023-03-31T04:57:45;97151.66;;;9.28;93.09
69971;BME280;57301;50.328;8.542;2023-03-31T05:00:58;97146.09;;;9.14;93.13
69971;BME280;57301;50.328;8.542;2023-03-31T05:03:24;97145.97;;;9.08;93.90
69971;BME280;57301;50.328;8.542;2023-03-31T05:05:51;97142.78;;;9.12;92.74
69971;BME280;57301;50.328;8.542;2023-03-31T05:08:18;97144.09;;;8.94;94.90
69971;BME280;57301;50.328;8.542;2023-03-31T05:10:44;97138.34;;;9.05;94.74
69971;BME280;57301;50.328;8.542;2023-03-31T05:13:11;97141.16;;;9.26;93.23
69971;BME280;57301;50.328;8.542;2023-03-31T05:15:38;97143.91;;;9.41;92.94
69971;BME280;57301;50.328;8.542;2023-03-31T05:18:06;97140.00;;;9.29;92.52
69971;BME280;57301;50.328;8.542;2023-03-31T05:20:33;97146.94;;;9.15;93.88
69971;BME280;57301;50.328;8.542;2023-03-31T05:23:00;97139.13;;;9.13;94.26
69971;BME280;57301;50.328;8.542;2023-03-31T05:25:27;97132.78;;;9.14;94.60
69971;BME280;57301;50.328;8.542;2023-03-31T05:27:59;97128.50;;;8.91;96.83
69971;BME280;57301;50.328;8.542;2023-03-31T05:30:27;97126.78;;;8.98;96.22
69971;BME280;57301;50.328;8.542;2023-03-31T05:32:54;97130.38;;;9.05;96.42
69971;BME280;57301;50.328;8.542;2023-03-31T05:35:21;97125.00;;;9.13;95.66
69971;BME280;57301;50.328;8.542;2023-03-31T05:37:48;97116.56;;;9.09;95.68
69971;BME280;57301;50.328;8.542;2023-03-31T05:40:15;97124.13;;;8.98;95.21
69971;BME280;57301;50.328;8.542;2023-03-31T05:42:41;97127.38;;;8.85;95.50
69971;BME280;57301;50.328;8.542;2023-03-31T05:45:08;97125.88;;;8.82;96.04
69971;BME280;57301;50.328;8.542;2023-03-31T05:47:35;97118.13;;;8.96;95.45
69971;BME280;57301;50.328;8.542;2023-03-31T05:50:02;97116.91;;;8.83;95.40
69971;BME280;57301;50.328;8.542;2023-03-31T05:52:33;97115.13;;;8.99;95.34
69971;BME280;57301;50.328;8.542;2023-03-31T05:55:00;97110.31;;;9.02;96.01
69971;BME280;57301;50.328;8.542;2023-03-31T05:57:26;97107.56;;;9.10;94.85
69971;BME280;57301;50.328;8.542;2023-03-31T05:59:53;97109.72;;;9.15;94.76
69971;BME280;57301;50.328;8.542;2023-03-31T06:02:19;97096.94;;;9.10;94.91
69971;BME280;57301;50.328;8.542;2023-03-31T06:04:46;97088.59;;;9.13;95.63
69971;BME280;57301;50.328;8.542;2023-03-31T06:07:13;97072.09;;;9.18;95.20
69971;BME280;57301;50.328;8.542;2023-03-31T06:09:40;97077.78;;;9.15;94.88
69971;BME280;57301;50.328;8.542;2023-03-31T06:12:07;97058.88;;;9.10;95.09
69971;BME280;57301;50.328;8.542;2023-03-31T06:14:33;97048.59;;;9.07;95.10
69971;BME280;57301;50.328;8.542;2023-03-31T06:17:02;97031.38;;;9.03;95.70
69971;BME280;57301;50.328;8.542;2023-03-31T06:19:28;97028.53;;;9.04;95.48
69971;BME280;57301;50.328;8.542;2023-03-31T06:21:56;97018.44;;;9.14;95.10
69971;BME280;57301;50.328;8.542;2023-03-31T06:24:23;97015.13;;;9.12;94.52
69971;BME280;57301;50.328;8.542;2023-03-31T06:26:50;97005.94;;;9.00;95.55
69971;BME280;57301;50.328;8.542;2023-03-31T06:29:19;97001.81;;;8.98;96.42
69971;BME280;57301;50.328;8.542;2023-03-31T06:31:45;96998.50;;;8.96;96.24
69971;BME280;57301;50.328;8.542;2023-03-31T06:34:12;96998.63;;;9.02;95.73
69971;BME280;57301;50.328;8.542;2023-03-31T06:36:38;96983.50;;;9.18;94.80
69971;BME280;57301;50.328;8.542;2023-03-31T06:39:05;96985.16;;;9.04;95.58
69971;BME280;57301;50.328;8.542;2023-03-31T06:41:31;96977.38;;;9.02;96.59
69971;BME280;57301;50.328;8.542;2023-03-31T06:43:58;96983.03;;;8.99;96.80
69971;BME280;57301;50.328;8.542;2023-03-31T06:46:25;96976.41;;;8.95;97.57
69971;BME280;57301;50.328;8.542;2023-03-31T06:48:52;96966.88;;;9.01;96.43
69971;BME280;57301;50.328;8.542;2023-03-31T06:51:19;96959.03;;;9.22;96.26
69971;BME280;57301;50.328;8.542;2023-03-31T06:53:46;96956.09;;;9.32;94.41
69971;BME280;57301;50.328;8.542;2023-03-31T06:56:15;96962.16;;;9.40;94.46
69971;BME280;57301;50.328;8.542;2023-03-31T06:58:42;96964.31;;;9.07;95.74
69971;BME280;57301;50.328;8.542;2023-03-31T07:01:08;96965.38;;;9.21;95.51
69971;BME280;57301;50.328;8.542;2023-03-31T07:03:36;96966.72;;;9.02;96.85
69971;BME280;57301;50.328;8.542;2023-03-31T07:06:03;96973.44;;;9.42;95.75
69971;BME280;57301;50.328;8.542;2023-03-31T07:08:30;96967.09;;;9.58;94.20
69971;BME280;57301;50.328;8.542;2023-03-31T07:10:59;96975.81;;;9.37;95.15
69971;BME280;57301;50.328;8.542;2023-03-31T07:13:26;96971.03;;;9.62;94.49
69971;BME280;57301;50.328;8.542;2023-03-31T07:15:54;96969.09;;;9.71;93.97
69971;BME280;57301;50.328;8.542;2023-03-31T07:18:21;96968.72;;;9.74;93.85
69971;BME280;57301;50.328;8.542;2023-03-31T07:20:51;96973.97;;;9.82;93.65
69971;BME280;57301;50.328;8.542;2023-03-31T07:23:18;96964.13;;;9.83;93.01
69971;BME280;57301;50.328;8.542;2023-03-31T07:25:46;96963.13;;;9.69;93.21
69971;BME280;57301;50.328;8.542;2023-03-31T07:28:12;96960.56;;;9.61;93.49
69971;BME280;57301;50.328;8.542;2023-03-31T07:30:39;96951.22;;;9.50;94.87
69971;BME280;57301;50.328;8.542;2023-03-31T07:33:06;96953.44;;;9.47;94.47
69971;BME280;57301;50.328;8.542;2023-03-31T07:35:37;96941.34;;;9.29;94.36
69971;BME280;57301;50.328;8.542;2023-03-31T07:38:04;96919.69;;;9.03;97.98
69971;BME280;57301;50.328;8.542;2023-03-31T07:40:30;96899.03;;;9.20;96.26
69971;BME280;57301;50.328;8.542;2023-03-31T07:42:57;96896.50;;;9.11;97.05
69971;BME280;57301;50.328;8.542;2023-03-31T07:45:24;96900.13;;;8.96;97.02
69971;BME280;57301;50.328;8.542;2023-03-31T07:47:52;96904.19;;;8.92;97.57
69971;BME280;57301;50.328;8.542;2023-03-31T07:50:19;96900.97;;;9.11;99.06
69971;BME280;57301;50.328;8.542;2023-03-31T07:52:46;96906.56;;;9.46;95.98
69971;BME280;57301;50.328;8.542;2023-03-31T07:55:13;96885.97;;;9.54;94.38
69971;BME280;57301;50.328;8.542;2023-03-31T07:57:40;96889.94;;;9.43;95.91
69971;BME280;57301;50.328;8.542;2023-03-31T08:00:09;96874.72;;;9.52;96.60
69971;BME280;57301;50.328;8.542;2023-03-31T08:02:39;96870.91;;;9.61;95.03
69971;BME280;57301;50.328;8.542;2023-03-31T08:05:07;96875.81;;;9.43;94.75
69971;BME280;57301;50.328;8.542;2023-03-31T08:07:38;96882.06;;;9.35;95.58
69971;BME280;57301;50.328;8.542;2023-03-31T08:10:12;96879.31;;;9.80;94.66
69971;BME280;57301;50.328;8.542;2023-03-31T08:12:39;96879.22;;;9.73;93.67
69971;BME280;57301;50.328;8.542;2023-03-31T08:15:06;96889.56;;;10.19;92.25
69971;BME280;57301;50.328;8.542;2023-03-31T08:17:33;96895.75;;;10.47;89.90
69971;BME280;57301;50.328;8.542;2023-03-31T08:20:00;96895.56;;;10.49;90.65
69971;BME280;57301;50.328;8.542;2023-03-31T08:22:33;96896.56;;;10.48;90.87
69971;BME280;57301;50.328;8.542;2023-03-31T08:24:59;96891.91;;;11.13;89.30
69971;BME280;57301;50.328;8.542;2023-03-31T08:27:26;96890.22;;;11.46;84.78
69971;BME280;57301;50.328;8.542;2023-03-31T08:29:52;96878.97;;;12.12;81.71
69971;BME280;57301;50.328;8.542;2023-03-31T08:32:22;96878.38;;;12.23;81.31
69971;BME280;57301;50.328;8.542;2023-03-31T08:34:50;96880.38;;;12.08;83.12
69971;BME280;57301;50.328;8.542;2023-03-31T08:37:16;96887.78;;;12.13;80.66
69971;BME280;57301;50.328;8.542;2023-03-31T08:39:43;96880.25;;;11.68;76.60
69971;BME280;57301;50.328;8.542;2023-03-31T08:42:14;96888.50;;;11.73;78.24
69971;BME280;57301;50.328;8.542;2023-03-31T08:45:24;96873.34;;;11.87;75.76
69971;BME280;57301;50.328;8.542;2023-03-31T08:47:57;96866.78;;;11.90;75.80
69971;BME280;57301;50.328;8.542;2023-03-31T08:50:29;96861.31;;;11.50;77.30
69971;BME280;57301;50.328;8.542;2023-03-31T08:53:19;96867.16;;;11.25;78.75
69971;BME280;57301;50.328;8.542;2023-03-31T08:55:51;96862.94;;;11.51;78.00
69971;BME280;57301;50.328;8.542;2023-03-31T09:01:05;96856.63;;;11.72;79.54
69971;BME280;57301;50.328;8.542;2023-03-31T09:11:54;96841.59;;;11.57;78.65
69971;BME280;57301;50.328;8.542;2023-03-31T09:17:22;96828.41;;;11.97;77.76
69971;BME280;57301;50.328;8.542;2023-03-31T09:20:24;96823.88;;;12.18;76.71
69971;BME280;57301;50.328;8.542;2023-03-31T09:25:37;96803.28;;;12.78;75.25
69971;BME280;57301;50.328;8.542;2023-03-31T09:28:29;96795.44;;;12.89;75.34
69971;BME280;57301;50.328;8.542;2023-03-31T09:30:55;96804.41;;;13.22;73.48
69971;BME280;57301;50.328;8.542;2023-03-31T09:33:26;96801.72;;;13.66;72.06
69971;BME280;57301;50.328;8.542;2023-03-31T09:36:00;96821.28;;;13.22;73.38
69971;BME280;57301;50.328;8.542;2023-03-31T09:38:28;96817.34;;;13.25;73.61
69971;BME280;57301;50.328;8.542;2023-03-31T09:40:57;96810.16;;;14.02;70.41
69971;BME280;57301;50.328;8.542;2023-03-31T09:43:29;96805.69;;;14.20;69.63
69971;BME280;57301;50.328;8.542;2023-03-31T09:45:57;96804.84;;;13.63;71.36
69971;BME280;57301;50.328;8.542;2023-03-31T09:48:40;96805.28;;;14.67;68.21
69971;BME280;57301;50.328;8.542;2023-03-31T09:51:18;96800.09;;;14.72;67.45
69971;BME280;57301;50.328;8.542;2023-03-31T09:54:00;96797.28;;;15.22;67.66
69971;BME280;57301;50.328;8.542;2023-03-31T09:59:13;96783.59;;;14.50;66.09
69971;BME280;57301;50.328;8.542;2023-03-31T10:01:41;96778.63;;;14.72;66.66
69971;BME280;57301;50.328;8.542;2023-03-31T10:04:07;96780.75;;;15.55;65.76
69971;BME280;57301;50.328;8.542;2023-03-31T10:06:39;96772.28;;;14.16;65.57
69971;BME280;57301;50.328;8.542;2023-03-31T10:09:09;96774.78;;;13.55;67.97
69971;BME280;57301;50.328;8.542;2023-03-31T10:11:36;96774.47;;;13.76;66.11
69971;BME280;57301;50.328;8.542;2023-03-31T10:14:12;96771.81;;;13.31;69.61
69971;BME280;57301;50.328;8.542;2023-03-31T10:16:47;96770.91;;;12.93;71.16
69971;BME280;57301;50.328;8.542;2023-03-31T10:19:27;96773.50;;;13.12;71.11
69971;BME280;57301;50.328;8.542;2023-03-31T10:22:05;96775.38;;;12.34;72.05
69971;BME280;57301;50.328;8.542;2023-03-31T10:24:40;96783.38;;;11.94;75.72
69971;BME280;57301;50.328;8.542;2023-03-31T10:27:20;96779.91;;;11.26;81.97
69971;BME280;57301;50.328;8.542;2023-03-31T10:29:52;96803.25;;;10.69;87.54
69971;BME280;57301;50.328;8.542;2023-03-31T10:34:55;96804.88;;;9.93;95.14
69971;BME280;57301;50.328;8.542;2023-03-31T10:37:24;96822.06;;;9.48;92.93
69971;BME280;57301;50.328;8.542;2023-03-31T10:40:12;96814.00;;;9.26;94.85
69971;BME280;57301;50.328;8.542;2023-03-31T10:42:43;96801.25;;;8.85;93.78
69971;BME280;57301;50.328;8.542;2023-03-31T10:45:25;96778.53;;;8.68;93.06
69971;BME280;57301;50.328;8.542;2023-03-31T10:48:04;96776.44;;;8.78;93.92
69971;BME280;57301;50.328;8.542;2023-03-31T10:50:34;96766.97;;;9.27;98.36
69971;BME280;57301;50.328;8.542;2023-03-31T10:53:19;96760.84;;;9.69;96.60
69971;BME280;57301;50.328;8.542;2023-03-31T10:56:04;96754.97;;;10.23;94.74
69971;BME280;57301;50.328;8.542;2023-03-31T11:15:33;96737.88;;;15.78;69.67
69971;BME280;57301;50.328;8.542;2023-03-31T11:21:01;96736.06;;;16.37;63.96
69971;BME280;57301;50.328;8.542;2023-03-31T11:23:44;96726.63;;;15.21;65.89
69971;BME280;57301;50.328;8.542;2023-03-31T11:29:17;96730.75;;;12.99;69.74
69971;BME280;57301;50.328;8.542;2023-03-31T11:34:52;96739.50;;;13.64;70.78
69971;BME280;57301;50.328;8.542;2023-03-31T11:42:49;96725.28;;;14.82;63.60
69971;BME280;57301;50.328;8.542;2023-03-31T11:45:24;96729.59;;;14.40;65.95
69971;BME280;57301;50.328;8.542;2023-03-31T11:47:58;96731.69;;;13.25;66.86
69971;BME280;57301;50.328;8.542;2023-03-31T11:50:35;96723.22;;;13.66;67.81
69971;BME280;57301;50.328;8.542;2023-03-31T11:53:13;96725.97;;;13.14;68.30
69971;BME280;57301;50.328;8.542;2023-03-31T11:55:42;96727.72;;;12.82;71.54
69971;BME280;57301;50.328;8.542;2023-03-31T11:58:12;96726.22;;;12.42;73.65
69971;BME280;57301;50.328;8.542;2023-03-31T12:00:44;96717.44;;;12.86;72.70
69971;BME280;57301;50.328;8.542;2023-03-31T12:03:38;96709.22;;;13.32;72.04
69971;BME280;57301;50.328;8.542;2023-03-31T12:06:14;96716.84;;;13.29;71.01
69971;BME280;57301;50.328;8.542;2023-03-31T12:08:53;96709.63;;;12.84;72.57
69971;BME280;57301;50.328;8.542;2023-03-31T12:11:48;96732.78;;;12.32;78.74
69971;BME280;57301;50.328;8.542;2023-03-31T12:17:11;96747.22;;;11.98;83.84
69971;BME280;57301;50.328;8.542;2023-03-31T12:19:47;96727.69;;;12.04;80.91
69971;BME280;57301;50.328;8.542;2023-03-31T12:22:21;96729.75;;;12.22;82.83
69971;BME280;57301;50.328;8.542;2023-03-31T12:24:51;96713.03;;;13.75;75.85
69971;BME280;57301;50.328;8.542;2023-03-31T12:27:39;96714.91;;;15.04;70.71
69971;BME280;57301;50.328;8.542;2023-03-31T12:30:13;96711.88;;;16.37;66.85
69971;BME280;57301;50.328;8.542;2023-03-31T12:32:46;96703.28;;;14.55;64.10
69971;BME280;57301;50.328;8.542;2023-03-31T12:35:28;96723.31;;;14.89;66.86
69971;BME280;57301;50.328;8.542;2023-03-31T12:43:18;96689.44;;;15.25;63.15
69971;BME280;57301;50.328;8.542;2023-03-31T12:45:59;96683.53;;;15.88;60.35
69971;BME280;57301;50.328;8.542;2023-03-31T12:48:33;96686.59;;;17.14;57.16
69971;BME280;57301;50.328;8.542;2023-03-31T12:51:23;96679.81;;;16.59;59.88
69971;BME280;57301;50.328;8.542;2023-03-31T12:54:07;96681.56;;;19.29;56.08
69971;BME280;57301;50.328;8.542;2023-03-31T12:57:04;96670.59;;;18.92;52.08
69971;BME280;57301;50.328;8.542;2023-03-31T12:59:42;96660.63;;;17.98;52.77
69971;BME280;57301;50.328;8.542;2023-03-31T13:04:41;96651.44;;;18.72;51.35
69971;BME280;57301;50.328;8.542;2023-03-31T13:09:56;96640.94;;;16.79;54.63
69971;BME280;57301;50.328;8.542;2023-03-31T13:12:24;96654.38;;;16.67;56.77
69971;BME280;57301;50.328;8.542;2023-03-31T13:14:54;96680.72;;;15.83;59.12
69971;BME280;57301;50.328;8.542;2023-03-31T13:17:30;96668.22;;;16.59;59.34
69971;BME280;57301;50.328;8.542;2023-03-31T13:20:25;96661.41;;;16.68;58.68
69971;BME280;57301;50.328;8.542;2023-03-31T13:23:05;96668.63;;;14.72;61.20
69971;BME280;57301;50.328;8.542;2023-03-31T13:25:36;96656.38;;;14.94;62.59
69971;BME280;57301;50.328;8.542;2023-03-31T13:33:30;96631.81;;;18.21;49.06
69971;BME280;57301;50.328;8.542;2023-03-31T13:44:08;96643.88;;;15.18;58.10
69971;BME280;57301;50.328;8.542;2023-03-31T13:52:35;96642.28;;;14.99;58.85
69971;BME280;57301;50.328;8.542;2023-03-31T13:55:27;96648.19;;;13.91;62.70
69971;BME280;57301;50.328;8.542;2023-03-31T14:04:24;96673.03;;;11.54;76.17
69971;BME280;57301;50.328;8.542;2023-03-31T14:07:01;96683.59;;;10.94;81.46
69971;BME280;57301;50.328;8.542;2023-03-31T14:09:35;96666.66;;;10.67;84.66
69971;BME280;57301;50.328;8.542;2023-03-31T14:12:36;96660.53;;;10.73;87.70
69971;BME280;57301;50.328;8.542;2023-03-31T14:15:04;96642.81;;;11.53;83.20
69971;BME280;57301;50.328;8.542;2023-03-31T14:17:36;96647.91;;;12.28;82.69
69971;BME280;57301;50.328;8.542;2023-03-31T14:26:52;96627.22;;;16.80;63.70
69971;BME280;57301;50.328;8.542;2023-03-31T14:29:43;96630.56;;;17.28;63.58
69971;BME280;57301;50.328;8.542;2023-03-31T14:37:53;96629.53;;;17.45;60.69
69971;BME280;57301;50.328;8.542;2023-03-31T14:40:22;96619.16;;;15.81;65.10
69971;BME280;57301;50.328;8.542;2023-03-31T14:42:49;96618.69;;;15.73;66.53
69971;BME280;57301;50.328;8.542;2023-03-31T14:45:21;96620.56;;;14.34;66.37
69971;BME280;57301;50.328;8.542;2023-03-31T14:47:58;96606.47;;;13.58;68.40
69971;BME280;57301;50.328;8.542;2023-03-31T14:50:34;96611.88;;;13.20;67.08
69971;BME280;57301;50.328;8.542;2023-03-31T14:53:00;96606.72;;;14.37;67.00
69971;BME280;57301;50.328;8.542;2023-03-31T14:55:30;96613.50;;;14.58;64.52
69971;BME280;57301;50.328;8.542;2023-03-31T14:58:34;96604.72;;;14.99;63.25
69971;BME280;57301;50.328;8.542;2023-03-31T15:01:03;96605.94;;;14.30;64.58
69971;BME280;57301;50.328;8.542;2023-03-31T15:03:34;96605.19;;;14.22;62.75
69971;BME280;57301;50.328;8.542;2023-03-31T15:06:03;96605.22;;;13.79;64.86
69971;BME280;57301;50.328;8.542;2023-03-31T15:08:31;96605.94;;;13.11;65.63
69971;BME280;57301;50.328;8.542;2023-03-31T15:11:03;96606.63;;;13.00;67.35
69971;BME280;57301;50.328;8.542;2023-03-31T15:13:43;96610.34;;;12.61;68.65
69971;BME280;57301;50.328;8.542;2023-03-31T15:16:34;96608.78;;;12.47;69.78
69971;BME280;57301;50.328;8.542;2023-03-31T15:19:10;96611.03;;;12.43;69.78
69971;BME280;57301;50.328;8.542;2023-03-31T15:21:38;96635.44;;;11.95;68.49
69971;BME280;57301;50.328;8.542;2023-03-31T15:24:05;96689.78;;;11.21;77.38
69971;BME280;57301;50.328;8.542;2023-03-31T15:26:36;96731.72;;;8.67;91.03
69971;BME280;57301;50.328;8.542;2023-03-31T15:29:12;96698.84;;;8.39;95.66
69971;BME280;57301;50.328;8.542;2023-03-31T15:31:41;96686.19;;;8.41;100.00
69971;BME280;57301;50.328;8.542;2023-03-31T15:34:31;96687.66;;;8.28;97.50
69971;BME280;57301;50.328;8.542;2023-03-31T15:36:59;96662.88;;;8.36;98.59
69971;BME280;57301;50.328;8.542;2023-03-31T15:39:31;96666.13;;;8.53;100.00
69971;BME280;57301;50.328;8.542;2023-03-31T15:42:00;96635.09;;;8.53;91.65
69971;BME280;57301;50.328;8.542;2023-03-31T15:44:37;96631.25;;;8.56;94.27
69971;BME280;57301;50.328;8.542;2023-03-31T15:49:52;96638.72;;;8.88;97.03
69971;BME280;57301;50.328;8.542;2023-03-31T15:52:21;96638.72;;;8.88;91.07
69971;BME280;57301;50.328;8.542;2023-03-31T15:54:50;96640.91;;;9.00;97.06
69971;BME280;57301;50.328;8.542;2023-03-31T15:57:17;96641.72;;;9.00;93.85
69971;BME280;57301;50.328;8.542;2023-03-31T15:59:51;96642.13;;;8.97;89.19
69971;BME280;57301;50.328;8.542;2023-03-31T16:02:25;96645.97;;;9.16;92.99
69971;BME280;57301;50.328;8.542;2023-03-31T16:04:56;96637.34;;;9.35;95.78
69971;BME280;57301;50.328;8.542;2023-03-31T16:07:26;96639.03;;;9.43;94.28